KSNS/SNS METAR and TAF weather

Enter ICAO airport designator
Station Type Date Time Source
KSNS METAR 2021/05/14 22:53 UTC NOAA

KSNS 142253Z 30014KT 10SM OVC012 13/09 A2998 RMK AO2 SLP161 T01330089


Station Type Date Time Source
KSNS Decoded METAR 2021/05/14 22:53 UTC NOAA

SALINAS MUNICIPAL AIRPORT, CA, United States (KSNS) 36-40N 121-36W 30M
May 14, 2021 - 06:53 PM EDT / 2021.05.14 2253 UTC
Wind: from the WNW (300 degrees) at 16 MPH (14 KT):0
Visibility: 10 mile(s):0
Sky conditions: overcast
Temperature: 55.9 F (13.3 C)
Dew Point: 48.0 F (8.9 C)
Relative Humidity: 74%
Pressure (altimeter): 29.98 in. Hg (1015 hPa)
ob: KSNS 142253Z 30014KT 10SM OVC012 13/09 A2998 RMK AO2 SLP161 T01330089
cycle: 23

Station Type Date Time Source
KSNS TAF 2021/05/14 18:42 UTC NOAA

TAF KSNS 141739Z 1418/1518 32008KT 6SM BR OVC009
FM141900 29012KT P6SM BKN011
FM142100 28014G21KT P6SM SCT013
TEMPO 1421/1501 BKN014
FM150100 30016G24KT P6SM BKN015
FM150300 27012G18KT 5SM -DZ BR OVC008
FM150600 26010KT 4SM -DZ BR OVC005
FM151600 25007KT 6SM -DZ BR OVC010

Example: see airport list